Terminal Aerodrome Forecast
Issued by NWS Cleveland, OH

Home | Current Version | Previous Version | Text Only | Print | Product List | Glossary On
Versions: 1 2 3 4 5 6 7 8 9 10 11 12 13 14 15 16 17
000
FTUS41 KCLE 272330
TAFERI
TAF
KERI 272330Z 2800/2824 26010KT P6SM FEW040 BKN200
     FM280300 22007KT P6SM FEW040 BKN150
     FM280600 18010KT P6SM FEW050 SCT200
     FM281300 22010KT P6SM FEW035 SCT200
     FM281400 27010KT P6SM FEW030 SCT200
     FM282300 20004KT P6SM SCT150=

USA.gov is the U.S. government's official web portal to all federal, state and local government web resources and services.